createdAt,value
2022-09-06T00:00:18.596Z,101227.88
2022-09-06T00:02:45.651Z,101224.66
2022-09-06T00:05:13.557Z,101230.25
2022-09-06T00:07:41.301Z,101227.90
2022-09-06T00:10:08.975Z,101231.02
2022-09-06T00:12:36.058Z,101233.25
2022-09-06T00:15:04.855Z,101226.48
2022-09-06T00:17:32.599Z,101224.32
2022-09-06T00:19:59.656Z,101222.31
2022-09-06T00:22:26.746Z,101221.89
2022-09-06T00:24:53.668Z,101223.59
2022-09-06T00:27:21.245Z,101220.52
2022-09-06T00:29:48.181Z,101219.05
2022-09-06T00:32:15.232Z,101216.90
2022-09-06T00:34:42.491Z,101219.71
2022-09-06T00:37:09.454Z,101220.07
2022-09-06T00:39:36.638Z,101220.95
2022-09-06T00:42:10.483Z,101222.39
2022-09-06T00:44:37.989Z,101218.73
2022-09-06T00:47:05.754Z,101218.24
2022-09-06T00:49:39.599Z,101221.62
2022-09-06T00:52:08.369Z,101220.25
2022-09-06T00:54:35.222Z,101221.55
2022-09-06T00:57:02.271Z,101222.80
2022-09-06T00:59:30.955Z,101221.42
2022-09-06T01:01:58.333Z,101219.16
2022-09-06T01:04:25.614Z,101216.02
2022-09-06T01:06:57.962Z,101214.11
2022-09-06T01:09:32.800Z,101212.56
2022-09-06T01:12:18.901Z,101211.34
2022-09-06T01:15:12.894Z,101213.30
2022-09-06T01:18:20.211Z,101214.91
2022-09-06T01:20:56.456Z,101222.53
2022-09-06T01:23:45.015Z,101219.58
2022-09-06T01:26:25.111Z,101221.74
2022-09-06T01:28:52.133Z,101219.31
2022-09-06T01:31:32.298Z,101220.93
2022-09-06T01:34:08.572Z,101223.43
2022-09-06T01:37:08.390Z,101222.55
2022-09-06T01:39:36.691Z,101218.98
2022-09-06T01:42:18.619Z,101218.79
2022-09-06T01:44:58.346Z,101217.16
2022-09-06T01:47:45.464Z,101217.44
2022-09-06T01:50:52.662Z,101214.91
2022-09-06T01:54:14.090Z,101217.98
2022-09-06T01:57:28.352Z,101222.48
2022-09-06T02:00:09.440Z,101219.08
2022-09-06T02:02:42.490Z,101215.35
2022-09-06T02:05:13.492Z,101211.94
2022-09-06T02:07:40.544Z,101210.80
2022-09-06T02:10:09.696Z,101210.94
2022-09-06T02:12:38.412Z,101209.48
2022-09-06T02:15:07.359Z,101211.92
2022-09-06T02:17:38.087Z,101212.26
2022-09-06T02:20:09.897Z,101217.38
2022-09-06T02:22:41.944Z,101213.18
2022-09-06T02:25:10.449Z,101213.06
2022-09-06T02:27:37.989Z,101213.13
2022-09-06T02:30:06.474Z,101211.42
2022-09-06T02:32:37.527Z,101210.05
2022-09-06T02:35:09.570Z,101214.52
2022-09-06T02:37:36.550Z,101215.82
2022-09-06T02:40:04.372Z,101213.61
2022-09-06T02:42:31.476Z,101220.56
2022-09-06T02:44:58.425Z,101220.62
2022-09-06T02:47:25.383Z,101223.84
2022-09-06T02:49:52.336Z,101226.71
2022-09-06T02:52:19.395Z,101232.23
2022-09-06T02:54:46.649Z,101232.27
2022-09-06T02:57:13.711Z,101231.25
2022-09-06T02:59:41.172Z,101231.84
2022-09-06T03:02:08.303Z,101237.17
2022-09-06T03:04:35.391Z,101245.70
2022-09-06T03:07:02.346Z,101243.13
2022-09-06T03:09:29.496Z,101245.11
2022-09-06T03:11:57.161Z,101244.97
2022-09-06T03:14:24.616Z,101249.23
2022-09-06T03:16:52.015Z,101251.02
2022-09-06T03:19:20.358Z,101251.92
2022-09-06T03:21:47.403Z,101251.96
2022-09-06T03:24:14.350Z,101256.75
2022-09-06T03:26:41.812Z,101254.13
2022-09-06T03:29:09.172Z,101256.61
2022-09-06T03:31:36.122Z,101254.84
2022-09-06T03:34:05.322Z,101257.66
2022-09-06T03:36:34.312Z,101258.35
2022-09-06T03:39:01.260Z,101259.89
2022-09-06T03:41:28.209Z,101260.06
2022-09-06T03:43:55.192Z,101262.52
2022-09-06T03:46:22.297Z,101263.36
2022-09-06T03:48:50.274Z,101266.87
2022-09-06T03:51:17.322Z,101273.27
2022-09-06T03:53:44.579Z,101274.86
2022-09-06T03:56:11.620Z,101277.13
2022-09-06T03:58:38.670Z,101280.67
2022-09-06T04:01:09.875Z,101282.39
2022-09-06T04:03:37.482Z,101284.09
2022-09-06T04:06:05.150Z,101284.70
2022-09-06T04:08:32.147Z,101284.23
2022-09-06T04:10:59.443Z,101278.14
2022-09-06T04:13:27.541Z,101278.73
2022-09-06T04:15:55.138Z,101278.09
2022-09-06T04:18:22.486Z,101275.88
2022-09-06T04:20:50.578Z,101277.05
2022-09-06T04:23:17.855Z,101277.89
2022-09-06T04:25:52.241Z,101278.15
2022-09-06T04:28:19.399Z,101278.73
2022-09-06T04:30:51.979Z,101277.73
2022-09-06T04:33:18.935Z,101280.83
2022-09-06T04:35:50.184Z,101280.55
2022-09-06T04:38:17.355Z,101277.80
2022-09-06T04:40:44.309Z,101275.73
2022-09-06T04:43:14.649Z,101277.91
2022-09-06T04:45:42.859Z,101279.52
2022-09-06T04:48:09.868Z,101276.89
2022-09-06T04:50:37.438Z,101276.90
2022-09-06T04:53:05.397Z,101275.16
2022-09-06T04:55:34.132Z,101266.34
2022-09-06T04:58:01.549Z,101262.66
2022-09-06T05:00:28.900Z,101259.11
2022-09-06T05:02:55.844Z,101260.89
2022-09-06T05:05:23.404Z,101261.55
2022-09-06T05:07:54.652Z,101260.63
2022-09-06T05:10:22.829Z,101258.96
2022-09-06T05:12:50.593Z,101260.98
2022-09-06T05:15:18.155Z,101258.43
2022-09-06T05:17:45.611Z,101267.67
2022-09-06T05:20:13.486Z,101272.17
2022-09-06T05:22:40.738Z,101273.95
2022-09-06T05:25:09.080Z,101273.63
2022-09-06T05:27:36.371Z,101269.10
2022-09-06T05:30:04.704Z,101271.88
2022-09-06T05:32:32.293Z,101272.77
2022-09-06T05:35:00.091Z,101269.23
2022-09-06T05:37:27.225Z,101265.41
2022-09-06T05:39:54.555Z,101273.22
2022-09-06T05:42:21.734Z,101270.93
2022-09-06T05:44:48.686Z,101271.25
2022-09-06T05:47:15.970Z,101263.05
2022-09-06T05:49:44.155Z,101262.77
2022-09-06T05:52:11.184Z,101260.73
2022-09-06T05:54:38.858Z,101254.63
2022-09-06T05:57:06.117Z,101251.90
2022-09-06T05:59:33.170Z,101257.77
2022-09-06T06:02:04.362Z,101255.48
2022-09-06T06:04:34.768Z,101253.60
2022-09-06T06:07:02.948Z,101259.43
2022-09-06T06:09:31.031Z,101257.36
2022-09-06T06:11:58.489Z,101260.92
2022-09-06T06:14:26.578Z,101261.25
2022-09-06T06:16:53.738Z,101255.67
2022-09-06T06:19:20.709Z,101252.73
2022-09-06T06:21:47.532Z,101252.53
2022-09-06T06:24:14.644Z,101254.98
2022-09-06T06:26:41.634Z,101252.22
2022-09-06T06:29:09.913Z,101253.96
2022-09-06T06:31:39.414Z,101252.41
2022-09-06T06:34:07.484Z,101246.83
2022-09-06T06:36:35.841Z,101248.87
2022-09-06T06:39:04.513Z,101245.71
2022-09-06T06:41:32.217Z,101246.65
2022-09-06T06:44:03.729Z,101250.54
2022-09-06T06:46:35.985Z,101252.58
2022-09-06T06:49:03.000Z,101255.91
2022-09-06T06:51:31.792Z,101255.27
2022-09-06T06:53:58.790Z,101256.83
2022-09-06T06:56:30.485Z,101256.55
2022-09-06T06:58:59.282Z,101255.74
2022-09-06T07:01:27.040Z,101259.06
2022-09-06T07:03:54.735Z,101258.06
2022-09-06T07:06:22.395Z,101255.69
2022-09-06T07:09:09.757Z,101256.78
2022-09-06T07:11:38.637Z,101252.94
2022-09-06T07:14:05.674Z,101255.81
2022-09-06T07:16:32.706Z,101254.13
2022-09-06T07:19:00.639Z,101257.58
2022-09-06T07:21:43.142Z,101257.23
2022-09-06T07:24:10.659Z,101253.54
2022-09-06T07:26:39.006Z,101253.30
2022-09-06T07:29:07.483Z,101252.79
2022-09-06T07:34:22.461Z,101255.77
2022-09-06T07:36:56.008Z,101249.95
2022-09-06T07:39:23.225Z,101251.38
2022-09-06T07:41:50.405Z,101253.60
2022-09-06T07:44:21.550Z,101252.40
2022-09-06T07:46:48.720Z,101248.56
2022-09-06T07:49:15.846Z,101247.09
2022-09-06T07:51:42.790Z,101250.31
2022-09-06T07:56:56.857Z,101249.44
2022-09-06T07:59:23.940Z,101250.23
2022-09-06T08:01:53.422Z,101245.13
2022-09-06T08:04:20.457Z,101242.41
2022-09-06T08:09:36.259Z,101235.95
2022-09-06T08:12:07.055Z,101235.14
2022-09-06T08:14:35.778Z,101234.00
2022-09-06T08:17:03.851Z,101233.86
2022-09-06T08:19:31.202Z,101234.38
2022-09-06T08:21:58.149Z,101227.89
2022-09-06T08:24:25.093Z,101230.61
2022-09-06T08:26:53.202Z,101235.16
2022-09-06T08:29:20.314Z,101234.64
2022-09-06T08:31:47.470Z,101233.27
2022-09-06T08:34:15.426Z,101229.98
2022-09-06T08:36:42.800Z,101233.34
2022-09-06T08:39:10.410Z,101229.98
2022-09-06T08:41:46.012Z,101222.14
2022-09-06T08:47:15.547Z,101217.75
2022-09-06T08:49:47.461Z,101219.14
2022-09-06T08:52:44.960Z,101217.96
2022-09-06T08:55:31.582Z,101211.88
2022-09-06T08:58:35.816Z,101205.31
2022-09-06T09:01:13.660Z,101204.14
2022-09-06T09:03:40.669Z,101203.65
2022-09-06T09:06:09.471Z,101196.03
2022-09-06T09:08:36.928Z,101195.89
2022-09-06T09:11:06.571Z,101190.94
2022-09-06T09:13:39.630Z,101186.61
2022-09-06T09:16:06.939Z,101183.91
2022-09-06T09:18:35.954Z,101184.65
2022-09-06T09:21:02.930Z,101188.80
2022-09-06T09:23:31.242Z,101192.48
2022-09-06T09:26:14.542Z,101190.88
2022-09-06T09:29:12.920Z,101189.28
2022-09-06T09:31:40.009Z,101189.69
2022-09-06T09:34:11.525Z,101190.64
2022-09-06T09:36:38.916Z,101193.55
2022-09-06T09:39:10.842Z,101192.17
2022-09-06T09:41:39.841Z,101193.92
2022-09-06T09:44:10.199Z,101192.98
2022-09-06T09:46:37.440Z,101193.77
2022-09-06T09:49:10.503Z,101188.89
2022-09-06T09:51:48.194Z,101187.06
2022-09-06T09:54:29.994Z,101182.88
2022-09-06T09:56:56.862Z,101182.40
2022-09-06T09:59:54.216Z,101180.88
2022-09-06T10:02:34.526Z,101177.11
2022-09-06T10:05:18.185Z,101175.96
2022-09-06T10:07:51.615Z,101179.38
2022-09-06T10:10:30.202Z,101185.64
2022-09-06T10:13:29.837Z,101181.37
2022-09-06T10:16:00.733Z,101177.32
2022-09-06T10:18:37.690Z,101172.22
2022-09-06T10:21:06.773Z,101174.91
2022-09-06T10:26:49.995Z,101172.34
2022-09-06T10:29:34.983Z,101172.67
2022-09-06T10:32:08.764Z,101170.48
2022-09-06T10:34:44.822Z,101165.73
2022-09-06T10:37:21.198Z,101166.55
2022-09-06T10:40:08.306Z,101166.37
2022-09-06T10:42:43.649Z,101166.85
2022-09-06T10:45:17.098Z,101165.77
2022-09-06T10:47:47.881Z,101160.38
2022-09-06T10:50:15.338Z,101159.12
2022-09-06T10:52:44.297Z,101157.71
2022-09-06T10:55:14.118Z,101156.80
2022-09-06T11:00:46.851Z,101149.63
2022-09-06T11:06:08.700Z,101152.73
2022-09-06T11:08:58.149Z,101150.06
2022-09-06T11:11:48.764Z,101144.88
2022-09-06T11:14:16.224Z,101146.56
2022-09-06T11:16:50.019Z,101145.09
2022-09-06T11:19:22.919Z,101140.98
2022-09-06T11:22:28.474Z,101139.30
2022-09-06T11:25:29.627Z,101142.52
2022-09-06T11:27:58.359Z,101143.58
2022-09-06T11:30:25.882Z,101143.61
2022-09-06T11:33:20.587Z,101140.42
2022-09-06T11:35:47.534Z,101134.46
2022-09-06T11:38:14.579Z,101132.05
2022-09-06T11:40:44.571Z,101128.33
2022-09-06T11:43:17.673Z,101130.52
2022-09-06T11:45:51.331Z,101130.59
2022-09-06T11:48:25.528Z,101132.21
2022-09-06T11:50:58.935Z,101133.52
2022-09-06T11:53:27.928Z,101130.25
2022-09-06T11:56:01.127Z,101128.02
2022-09-06T11:58:31.143Z,101128.86
2022-09-06T12:01:14.172Z,101128.60
2022-09-06T12:06:43.074Z,101124.72
2022-09-06T12:09:47.193Z,101118.98
2022-09-06T12:12:41.591Z,101114.20
2022-09-06T12:15:25.900Z,101110.15
2022-09-06T12:17:53.412Z,101112.93
2022-09-06T12:20:48.520Z,101108.02
2022-09-06T12:23:37.292Z,101103.26
2022-09-06T12:26:10.078Z,101101.95
2022-09-06T12:28:54.081Z,101103.73
2022-09-06T12:31:33.497Z,101108.43
2022-09-06T12:34:06.058Z,101108.04
2022-09-06T12:36:32.937Z,101104.34
2022-09-06T12:39:09.782Z,101106.55
2022-09-06T12:41:43.107Z,101102.74
2022-09-06T12:44:11.264Z,101101.35
2022-09-06T12:46:40.126Z,101099.03
2022-09-06T12:49:09.296Z,101096.77
2022-09-06T12:51:38.159Z,101097.84
2022-09-06T12:54:22.517Z,101094.32
2022-09-06T12:56:49.976Z,101097.13
2022-09-06T12:59:25.245Z,101097.64
2022-09-06T13:02:05.893Z,101095.15
2022-09-06T13:04:43.081Z,101094.91
2022-09-06T13:07:13.318Z,101092.13
2022-09-06T13:09:42.127Z,101093.41
2022-09-06T13:12:19.287Z,101090.86
2022-09-06T13:14:46.338Z,101089.08
2022-09-06T13:17:26.292Z,101084.92
2022-09-06T13:19:53.379Z,101079.87
2022-09-06T13:22:42.213Z,101074.69
2022-09-06T13:25:35.963Z,101072.27
2022-09-06T13:28:03.757Z,101072.40
2022-09-06T13:30:36.440Z,101076.86
2022-09-06T13:33:04.414Z,101073.67
2022-09-06T13:35:34.751Z,101075.71
2022-09-06T13:38:21.044Z,101079.98
2022-09-06T13:41:15.886Z,101079.81
2022-09-06T13:43:45.309Z,101075.59
2022-09-06T13:46:12.426Z,101078.24
2022-09-06T13:48:40.005Z,101079.35
2022-09-06T13:51:08.086Z,101070.59
2022-09-06T13:53:35.399Z,101078.95
2022-09-06T13:56:03.363Z,101081.63
2022-09-06T13:58:31.637Z,101080.53
2022-09-06T14:00:58.844Z,101080.14
2022-09-06T14:03:28.778Z,101080.64
2022-09-06T14:05:56.582Z,101078.73
2022-09-06T14:08:23.679Z,101082.35
2022-09-06T14:10:51.430Z,101079.23
2022-09-06T14:13:18.861Z,101078.05
2022-09-06T14:15:47.470Z,101075.71
2022-09-06T14:18:14.803Z,101075.14
2022-09-06T14:20:42.119Z,101072.52
2022-09-06T14:23:09.610Z,101073.85
2022-09-06T14:25:38.173Z,101078.20
2022-09-06T14:28:06.018Z,101074.12
2022-09-06T14:30:33.514Z,101076.20
2022-09-06T14:33:00.974Z,101075.20
2022-09-06T14:35:28.633Z,101075.68
2022-09-06T14:37:55.516Z,101078.52
2022-09-06T14:40:22.422Z,101075.50
2022-09-06T14:42:50.630Z,101077.46
2022-09-06T14:45:18.773Z,101077.44
2022-09-06T14:47:46.223Z,101072.64
2022-09-06T14:50:13.477Z,101077.00
2022-09-06T14:52:40.424Z,101076.92
2022-09-06T14:55:07.799Z,101076.27
2022-09-06T14:57:35.549Z,101078.66
2022-09-06T15:00:06.258Z,101075.61
2022-09-06T15:02:33.277Z,101074.29
2022-09-06T15:05:00.367Z,101069.92
2022-09-06T15:07:29.053Z,101067.89
2022-09-06T15:09:56.407Z,101070.02
2022-09-06T15:12:23.486Z,101070.66
2022-09-06T15:14:50.499Z,101065.73
2022-09-06T15:17:17.550Z,101065.34
2022-09-06T15:19:46.067Z,101070.39
2022-09-06T15:22:13.498Z,101070.04
2022-09-06T15:24:40.857Z,101072.19
2022-09-06T15:27:07.807Z,101071.02
2022-09-06T15:29:34.753Z,101071.83
2022-09-06T15:32:02.114Z,101071.02
2022-09-06T15:34:29.776Z,101067.23
2022-09-06T15:36:57.242Z,101068.38
2022-09-06T15:39:24.344Z,101067.73
2022-09-06T15:41:51.900Z,101069.60
2022-09-06T15:44:19.725Z,101068.00
2022-09-06T15:46:58.274Z,101068.64
2022-09-06T15:49:33.918Z,101070.14
2022-09-06T15:52:03.149Z,101072.17
2022-09-06T15:54:48.726Z,101073.79
2022-09-06T15:57:16.724Z,101074.53
2022-09-06T15:59:44.433Z,101073.91
2022-09-06T16:02:11.959Z,101072.98
2022-09-06T16:04:39.123Z,101074.11
2022-09-06T16:07:06.961Z,101072.55
2022-09-06T16:09:33.872Z,101073.59
2022-09-06T16:12:00.839Z,101073.81
2022-09-06T16:14:29.165Z,101076.51
2022-09-06T16:16:57.549Z,101080.50
2022-09-06T16:19:26.239Z,101082.80
2022-09-06T16:21:53.242Z,101083.74
2022-09-06T16:24:21.576Z,101086.11
2022-09-06T16:26:48.686Z,101087.93
2022-09-06T16:29:16.697Z,101086.48
2022-09-06T16:31:43.912Z,101088.01
2022-09-06T16:34:11.830Z,101089.52
2022-09-06T16:36:38.953Z,101093.14
2022-09-06T16:39:06.486Z,101093.84
2022-09-06T16:41:41.255Z,101100.63
2022-09-06T16:44:09.235Z,101104.60
2022-09-06T16:46:36.398Z,101105.95
2022-09-06T16:49:04.666Z,101106.29
2022-09-06T16:51:31.840Z,101114.07
2022-09-06T16:53:59.612Z,101116.05
2022-09-06T16:56:28.650Z,101118.23
2022-09-06T16:58:57.106Z,101126.30
2022-09-06T17:01:27.826Z,101130.94
2022-09-06T17:03:56.134Z,101131.89
2022-09-06T17:06:24.275Z,101137.73
2022-09-06T17:08:52.198Z,101140.92
2022-09-06T17:11:20.673Z,101146.92
2022-09-06T17:13:49.588Z,101150.36
2022-09-06T17:16:35.730Z,101151.30
2022-09-06T17:19:02.751Z,101157.39
2022-09-06T17:21:29.909Z,101160.30
2022-09-06T17:23:58.808Z,101162.98
2022-09-06T17:26:25.770Z,101169.52
2022-09-06T17:28:52.721Z,101174.82
2022-09-06T17:31:25.520Z,101177.70
2022-09-06T17:33:53.633Z,101181.27
2022-09-06T17:36:25.581Z,101184.67
2022-09-06T17:38:54.117Z,101189.48
2022-09-06T17:41:22.378Z,101187.73
2022-09-06T17:43:50.744Z,101195.95
2022-09-06T17:46:18.293Z,101199.27
2022-09-06T17:48:45.716Z,101202.02
2022-09-06T17:51:13.196Z,101206.73
2022-09-06T17:53:41.483Z,101209.81
2022-09-06T17:56:10.579Z,101215.87
2022-09-06T17:58:37.599Z,101219.83
2022-09-06T18:01:11.430Z,101223.75
2022-09-06T18:03:42.338Z,101228.18
2022-09-06T18:06:11.110Z,101229.38
2022-09-06T18:08:40.570Z,101234.79
2022-09-06T18:11:12.503Z,101236.36
2022-09-06T18:13:40.080Z,101242.70
2022-09-06T18:16:07.058Z,101243.48
2022-09-06T18:18:34.543Z,101243.29
2022-09-06T18:21:02.789Z,101243.38
2022-09-06T18:23:30.978Z,101246.48
2022-09-06T18:25:59.369Z,101249.41
2022-09-06T18:28:28.041Z,101250.74
2022-09-06T18:31:10.578Z,101250.98
2022-09-06T18:33:38.429Z,101253.52
2022-09-06T18:36:07.718Z,101250.23
2022-09-06T18:38:35.042Z,101249.07
2022-09-06T18:41:03.462Z,101247.13
2022-09-06T18:43:32.634Z,101250.31
2022-09-06T18:46:03.604Z,101251.78
2022-09-06T18:48:34.629Z,101251.18
2022-09-06T18:51:11.624Z,101251.45
2022-09-06T18:53:42.708Z,101247.45
2022-09-06T18:56:12.468Z,101251.63
2022-09-06T18:58:39.682Z,101252.42
2022-09-06T19:01:08.870Z,101253.94
2022-09-06T19:03:36.719Z,101251.72
2022-09-06T19:06:15.266Z,101252.84
2022-09-06T19:08:42.500Z,101254.88
2022-09-06T19:11:17.379Z,101254.96
2022-09-06T19:13:45.243Z,101255.80
2022-09-06T19:16:13.322Z,101257.38
2022-09-06T19:18:40.655Z,101256.81
2022-09-06T19:21:12.514Z,101260.54
2022-09-06T19:23:41.107Z,101259.79
2022-09-06T19:26:10.359Z,101261.22
2022-09-06T19:28:38.202Z,101260.42
2022-09-06T19:31:16.103Z,101261.00
2022-09-06T19:33:43.855Z,101264.98
2022-09-06T19:36:12.350Z,101265.22
2022-09-06T19:38:59.596Z,101267.93
2022-09-06T19:41:35.379Z,101265.20
2022-09-06T19:44:05.872Z,101273.45
2022-09-06T19:46:36.723Z,101270.48
2022-09-06T19:49:08.373Z,101271.63
2022-09-06T19:51:36.521Z,101272.73
2022-09-06T19:54:03.792Z,101272.94
2022-09-06T19:56:33.627Z,101276.18
2022-09-06T19:59:02.758Z,101277.46
2022-09-06T20:01:31.284Z,101282.30
2022-09-06T20:03:58.923Z,101282.15
2022-09-06T20:06:27.074Z,101281.68
2022-09-06T20:08:55.565Z,101281.55
2022-09-06T20:11:23.965Z,101283.39
2022-09-06T20:13:51.007Z,101282.58
2022-09-06T20:16:20.628Z,101282.13
2022-09-06T20:18:48.718Z,101283.79
2022-09-06T20:21:17.899Z,101284.70
2022-09-06T20:23:50.869Z,101285.45
2022-09-06T20:26:18.356Z,101287.45
2022-09-06T20:28:46.291Z,101292.46
2022-09-06T20:31:16.346Z,101293.05
2022-09-06T20:33:48.766Z,101295.25
2022-09-06T20:36:17.213Z,101302.80
2022-09-06T20:38:45.805Z,101306.70
2022-09-06T20:41:20.072Z,101307.64
2022-09-06T20:43:51.439Z,101307.25
2022-09-06T20:46:19.900Z,101310.38
2022-09-06T20:48:47.013Z,101313.98
2022-09-06T20:51:19.009Z,101314.62
2022-09-06T20:53:53.100Z,101313.27
2022-09-06T20:56:24.978Z,101315.39
2022-09-06T20:58:56.703Z,101314.45
2022-09-06T21:01:25.209Z,101313.63
2022-09-06T21:03:57.799Z,101316.84
2022-09-06T21:06:26.089Z,101318.67
2022-09-06T21:08:53.237Z,101316.80
2022-09-06T21:11:21.655Z,101312.10
2022-09-06T21:13:52.670Z,101318.40
2022-09-06T21:16:24.226Z,101321.85
2022-09-06T21:18:52.362Z,101321.21
2022-09-06T21:21:19.359Z,101319.21
2022-09-06T21:23:46.309Z,101319.45
2022-09-06T21:26:13.361Z,101320.23
2022-09-06T21:28:40.826Z,101316.10
2022-09-06T21:31:09.064Z,101316.96
2022-09-06T21:33:36.769Z,101316.79
2022-09-06T21:36:07.143Z,101314.62
2022-09-06T21:38:34.868Z,101318.74
2022-09-06T21:41:02.433Z,101320.50
2022-09-06T21:43:30.716Z,101317.81
2022-09-06T21:46:08.015Z,101316.91
2022-09-06T21:48:38.959Z,101320.89
2022-09-06T21:51:09.903Z,101317.33
2022-09-06T21:53:36.951Z,101319.63
2022-09-06T21:56:04.774Z,101321.93
2022-09-06T21:58:31.880Z,101315.61
2022-09-06T22:00:59.525Z,101317.63
2022-09-06T22:03:27.456Z,101324.00
2022-09-06T22:05:55.506Z,101321.53
2022-09-06T22:08:22.965Z,101321.67
2022-09-06T22:10:50.017Z,101323.96
2022-09-06T22:13:17.275Z,101319.52
2022-09-06T22:15:44.767Z,101321.98
2022-09-06T22:18:11.999Z,101320.14
2022-09-06T22:20:39.135Z,101320.13
2022-09-06T22:23:07.064Z,101320.63
2022-09-06T22:25:34.085Z,101321.74
2022-09-06T22:28:01.555Z,101317.92
2022-09-06T22:30:29.028Z,101317.95
2022-09-06T22:32:57.091Z,101322.51
2022-09-06T22:35:24.043Z,101314.86
2022-09-06T22:37:50.999Z,101312.84
2022-09-06T22:40:17.846Z,101315.40
2022-09-06T22:42:44.695Z,101313.35
2022-09-06T22:45:11.644Z,101314.01
2022-09-06T22:47:38.597Z,101315.14
2022-09-06T22:50:06.750Z,101319.88
2022-09-06T22:52:33.729Z,101320.23
2022-09-06T22:55:00.614Z,101318.80
2022-09-06T22:57:27.537Z,101319.70
2022-09-06T22:59:54.582Z,101324.45
2022-09-06T23:02:21.639Z,101325.33
2022-09-06T23:04:48.861Z,101321.63
2022-09-06T23:07:16.005Z,101326.42
2022-09-06T23:09:43.110Z,101329.89
2022-09-06T23:12:10.082Z,101328.41
2022-09-06T23:14:37.121Z,101324.10
2022-09-06T23:17:04.100Z,101318.83
2022-09-06T23:19:31.020Z,101320.61
2022-09-06T23:21:58.180Z,101322.54
2022-09-06T23:24:27.108Z,101322.02
2022-09-06T23:26:55.152Z,101322.20
2022-09-06T23:29:22.198Z,101318.89
2022-09-06T23:31:49.200Z,101324.91
2022-09-06T23:34:16.611Z,101323.52
2022-09-06T23:36:44.074Z,101323.91
2022-09-06T23:39:11.838Z,101321.87
2022-09-06T23:41:38.723Z,101320.84
2022-09-06T23:44:05.637Z,101323.49
2022-09-06T23:46:33.857Z,101324.41
2022-09-06T23:49:00.974Z,101321.48
2022-09-06T23:51:27.929Z,101320.90
2022-09-06T23:53:54.876Z,101319.91
2022-09-06T23:56:22.642Z,101320.48
2022-09-06T23:58:49.590Z,101320.38
